Time;durP1;ratioP1;P1;durP2;ratioP2;P2;SDS_P1;SDS_P2;PMS_P1;PMS_P2;Temp;Humidity;BMP_temperature;BMP_pressure;BME280_temperature;BME280_humidity;BME280_pressure;Samples;Min_cycle;Max_cycle;Signal;HPM_P1;HPM_P2
2022/01/01 00:02:21;;;;;;;;;;;;;;;-144.99;100.00;52653.97;5030340;28;19921;-60
2022/01/01 00:04:47;;;;;;;;;;;;;;;-144.99;100.00;52623.38;5027424;28;19933;-58
2022/01/01 00:07:14;;;;;;;;;;;;;;;-144.99;100.00;52627.47;5022970;28;19979;-61
2022/01/01 00:09:42;;;;;;;;;;;;;;;-144.99;100.00;52639.69;5022887;28;19925;-59
2022/01/01 00:12:10;;;;;;;;;;;;;;;-144.99;100.00;52623.38;5032280;28;20026;-60
2022/01/01 00:14:36;;;;;;;;;;;;;;;-144.99;100.00;52615.25;5032180;28;20012;-60
2022/01/01 00:17:03;;;;;;;;;;;;;;;-144.99;100.00;52645.81;5028307;28;19964;-59
2022/01/01 00:19:31;;;;;;;;;;;;;;;-144.99;100.00;52651.94;5028056;28;19932;-63
2022/01/01 00:21:57;;;;;;;;;;;;;;;-144.99;100.00;52639.69;5027890;28;19932;-65
2022/01/01 00:24:24;;;;;;;;;;;;;;;-144.99;100.00;52643.78;5024531;28;20274;-65
2022/01/01 00:26:50;;;;;;;;;;;;;;;-144.99;100.00;52615.25;5043691;28;19924;-64
2022/01/01 00:29:17;;;;;;;;;;;;;;;-144.99;100.00;52615.25;5027724;28;20001;-64
2022/01/01 00:31:43;;;;;;;;;;;;;;;-144.99;100.00;52623.38;5026988;28;19948;-64
2022/01/01 00:34:09;;;;;;;;;;;;;;;-144.99;100.00;52664.16;5027587;28;19928;-64
2022/01/01 00:36:38;;;;;;;;;;;;;;;-144.99;100.00;52641.72;5028062;28;19992;-63
2022/01/01 00:39:05;;;;;;;;;;;;;;;-144.99;100.00;52651.94;5027105;28;19925;-65
2022/01/01 00:41:31;;;;;;;;;;;;;;;-144.99;100.00;52647.84;5027512;28;19921;-61
2022/01/01 00:43:58;;;;;;;;;;;;;;;-144.99;100.00;52619.31;5026899;28;19946;-63
2022/01/01 00:46:26;;;;;;;;;;;;;;;-144.99;100.00;52615.25;5032466;28;20316;-65
2022/01/01 00:48:53;;;;;;;;;;;;;;;-144.99;100.00;52653.97;5030820;28;19929;-65
2022/01/01 00:51:20;;;;;;;;;;;;;;;-144.99;100.00;52613.19;5033251;28;19924;-65
2022/01/01 00:53:47;;;;;;;;;;;;;;;-144.99;100.00;52621.34;5027208;28;19925;-64
2022/01/01 00:56:14;;;;;;;;;;;;;;;-144.99;100.00;52615.25;5028479;28;19927;-65
2022/01/01 00:58:40;;;;;;;;;;;;;;;-144.99;100.00;52603.00;5039002;28;19925;-64
2022/01/01 01:01:07;;;;;;;;;;;;;;;-144.99;100.00;52611.16;5030991;28;20363;-64
2022/01/01 01:03:34;;;;;;;;;;;;;;;-144.99;100.00;52615.25;5029482;28;19947;-65
2022/01/01 01:06:00;;;;;;;;;;;;;;;-144.99;100.00;52623.38;5026945;28;19921;-67
2022/01/01 01:08:27;;;;;;;;;;;;;;;-144.99;100.00;52631.53;5033488;28;19928;-65
2022/01/01 01:10:56;;;;;;;;;;;;;;;-144.99;100.00;52631.53;5027456;28;19931;-65
2022/01/01 01:13:22;;;;;;;;;;;;;;;-144.99;100.00;52627.47;5029038;28;19944;-65
2022/01/01 01:15:49;;;;;;;;;;;;;;;-144.99;100.00;52631.53;5027352;28;20019;-65
2022/01/01 01:18:18;;;;;;;;;;;;;;;-144.99;100.00;52611.16;5031635;28;19925;-64
2022/01/01 01:20:45;;;;;;;;;;;;;;;-144.99;100.00;52639.69;5031538;28;19970;-64
2022/01/01 01:23:11;;;;;;;;;;;;;;;-144.99;100.00;52639.69;5027450;28;20020;-63
2022/01/01 01:25:40;;;;;;;;;;;;;;;-144.99;100.00;52651.94;5024962;28;19928;-64
2022/01/01 01:28:08;;;;;;;;;;;;;;;-144.99;100.00;52631.53;5027035;28;19925;-62
2022/01/01 01:30:35;;;;;;;;;;;;;;;-144.99;100.00;52643.78;5030787;28;20408;-63
2022/01/01 01:33:01;;;;;;;;;;;;;;;-144.99;100.00;52627.47;5035945;28;19925;-64
2022/01/01 01:35:27;;;;;;;;;;;;;;;-144.99;100.00;52635.63;5026213;28;20020;-64
2022/01/01 01:37:54;;;;;;;;;;;;;;;-144.99;100.00;52651.94;5030423;28;19925;-62
2022/01/01 01:40:20;;;;;;;;;;;;;;;-144.99;100.00;52623.38;5031424;28;20524;-62
2022/01/01 01:42:47;;;;;;;;;;;;;;;-144.99;100.00;52627.47;5027838;28;19931;-62
2022/01/01 01:45:17;;;;;;;;;;;;;;;-144.99;100.00;52609.13;5033999;28;19960;-63
2022/01/01 01:47:44;;;;;;;;;;;;;;;-144.99;100.00;52649.88;5033268;28;19929;-64
2022/01/01 01:50:12;;;;;;;;;;;;;;;-144.99;100.00;52607.09;5030988;28;20300;-63
2022/01/01 01:52:40;;;;;;;;;;;;;;;-144.99;100.00;52662.13;5026522;28;19932;-63
2022/01/01 01:55:08;;;;;;;;;;;;;;;-144.99;100.00;52635.63;5023672;28;19935;-63
2022/01/01 01:57:35;;;;;;;;;;;;;;;-144.99;100.00;52639.69;5032817;28;19925;-63
2022/01/01 02:00:01;;;;;;;;;;;;;;;-144.99;100.00;52643.78;5029124;28;20299;-64
2022/01/01 02:05:08;;;;;;;;;;;;;;;-144.99;100.00;52615.25;5042253;28;20185;-63
2022/01/01 02:07:34;;;;;;;;;;;;;;;-144.99;100.00;52631.53;5048396;28;19951;-65
2022/01/01 02:10:01;;;;;;;;;;;;;;;-144.99;100.00;52621.34;5053638;28;19994;-62
2022/01/01 02:12:27;;;;;;;;;;;;;;;-144.99;100.00;52647.84;5059479;28;20295;-60
2022/01/01 02:15:11;;;;;;;;;;;;;;;-144.99;100.00;52680.47;5049102;28;19971;-59
2022/01/01 02:17:37;;;;;;;;;;;;;;;-144.99;100.00;52647.84;5055086;28;19995;-62
2022/01/01 02:20:11;;;;;;;;;;;;;;;-144.99;100.00;52651.94;5057860;28;19929;-58
2022/01/01 02:22:40;;;;;;;;;;;;;;;-144.99;100.00;52656.00;5055307;28;19932;-58
2022/01/01 02:25:07;;;;;;;;;;;;;;;-144.99;100.00;52619.31;4707721;28;10000381;-57
2022/01/01 02:27:36;;;;;;;;;;;;;;;-144.99;100.00;52627.47;5051621;28;20032;-56
2022/01/01 02:30:03;;;;;;;;;;;;;;;-144.99;100.00;52692.69;5046464;28;19964;-58
2022/01/01 02:32:29;;;;;;;;;;;;;;;-144.99;100.00;52598.94;5046819;28;19927;-57
2022/01/01 02:34:56;;;;;;;;;;;;;;;-144.99;100.00;52598.94;5047443;28;19927;-59
2022/01/01 02:37:23;;;;;;;;;;;;;;;-144.99;100.00;52623.38;5055496;28;19921;-58
2022/01/01 02:39:50;;;;;;;;;;;;;;;-144.99;100.00;52662.13;5048150;28;19928;-57
2022/01/01 02:42:19;;;;;;;;;;;;;;;-144.99;100.00;52643.78;5049183;28;20381;-57
2022/01/01 02:44:46;;;;;;;;;;;;;;;-144.99;100.00;52623.38;5048591;28;20011;-57
2022/01/01 02:47:17;;;;;;;;;;;;;;;-144.99;100.00;52649.88;5055228;28;19921;-57
2022/01/01 02:49:44;;;;;;;;;;;;;;;-144.99;100.00;52639.69;5052974;28;19928;-58
2022/01/01 02:52:10;;;;;;;;;;;;;;;-144.99;100.00;52647.84;5053358;28;19920;-58
2022/01/01 02:54:38;;;;;;;;;;;;;;;-144.99;100.00;52651.94;5053127;28;19921;-56
2022/01/01 02:57:04;;;;;;;;;;;;;;;-144.99;100.00;52643.78;5050949;28;19921;-57
2022/01/01 02:59:30;;;;;;;;;;;;;;;-144.99;100.00;52621.34;5059846;28;19920;-57
2022/01/01 03:01:57;;;;;;;;;;;;;;;-144.99;100.00;52592.81;5052787;28;19921;-59
2022/01/01 03:04:24;;;;;;;;;;;;;;;-144.99;100.00;52619.31;5052595;28;20392;-59
2022/01/01 03:06:54;;;;;;;;;;;;;;;-144.99;100.00;52613.19;5053400;28;19925;-58
2022/01/01 03:09:20;;;;;;;;;;;;;;;-144.99;100.00;52627.47;5052630;28;19921;-58
2022/01/01 03:11:48;;;;;;;;;;;;;;;-144.99;100.00;52627.47;5052293;28;19924;-59
2022/01/01 03:14:17;;;;;;;;;;;;;;;-144.99;100.00;52627.47;5064194;28;19920;-58
2022/01/01 03:16:43;;;;;;;;;;;;;;;-144.99;100.00;52645.81;5057613;28;20130;-57
2022/01/01 03:19:10;;;;;;;;;;;;;;;-144.99;100.00;52605.03;5052457;28;19921;-57
2022/01/01 03:21:36;;;;;;;;;;;;;;;-144.99;100.00;52660.09;5052488;28;20030;-58
2022/01/01 03:24:02;;;;;;;;;;;;;;;-144.99;100.00;52607.09;5054165;28;19924;-59
2022/01/01 03:26:29;;;;;;;;;;;;;;;-144.99;100.00;52651.94;5064056;28;19932;-58
2022/01/01 03:28:56;;;;;;;;;;;;;;;-144.99;100.00;52643.78;5052244;28;19947;-58
2022/01/01 03:31:24;;;;;;;;;;;;;;;-144.99;100.00;52592.81;5052407;28;19921;-58
2022/01/01 03:33:51;;;;;;;;;;;;;;;-144.99;100.00;52643.78;5051633;28;19920;-58
2022/01/01 03:36:17;;;;;;;;;;;;;;;-144.99;100.00;52631.53;5060726;28;19921;-58
2022/01/01 03:38:43;;;;;;;;;;;;;;;-144.99;100.00;52664.16;5051391;28;19924;-63
2022/01/01 03:41:13;;;;;;;;;;;;;;;-144.99;100.00;52623.38;5052195;28;19921;-62
2022/01/01 03:43:39;;;;;;;;;;;;;;;-144.99;100.00;52627.47;5052114;28;19920;-63
2022/01/01 03:46:07;;;;;;;;;;;;;;;-144.99;100.00;52660.09;5057257;28;20370;-63
2022/01/01 03:48:33;;;;;;;;;;;;;;;-144.99;100.00;52658.03;5053109;28;19920;-63
2022/01/01 03:51:00;;;;;;;;;;;;;;;-144.99;100.00;52623.38;5052601;28;19944;-63
2022/01/01 03:53:26;;;;;;;;;;;;;;;-144.99;100.00;52643.78;5051939;28;19928;-63
2022/01/01 03:55:53;;;;;;;;;;;;;;;-144.99;100.00;52633.59;5050251;28;20380;-59
2022/01/01 03:58:19;;;;;;;;;;;;;;;-144.99;100.00;52623.38;5063382;28;19920;-59
2022/01/01 04:00:45;;;;;;;;;;;;;;;-144.99;100.00;52641.72;5052940;28;19928;-59
2022/01/01 04:03:14;;;;;;;;;;;;;;;-144.99;100.00;52590.78;5051764;28;19928;-58
2022/01/01 04:05:41;;;;;;;;;;;;;;;-144.99;100.00;52651.94;5051471;28;19927;-61
2022/01/01 04:08:08;;;;;;;;;;;;;;;-144.99;100.00;52631.53;5051553;28;19928;-61
2022/01/01 04:10:35;;;;;;;;;;;;;;;-144.99;100.00;52617.28;5051376;28;19920;-61
2022/01/01 04:13:01;;;;;;;;;;;;;;;-144.99;100.00;52570.38;5059146;28;19943;-62
2022/01/01 04:15:28;;;;;;;;;;;;;;;-144.99;100.00;52613.19;5060715;28;19928;-61
2022/01/01 04:17:58;;;;;;;;;;;;;;;-144.99;100.00;52643.78;5051540;28;19924;-61
2022/01/01 04:20:26;;;;;;;;;;;;;;;-144.99;100.00;52627.47;5045945;28;20007;-61
2022/01/01 04:22:53;;;;;;;;;;;;;;;-144.99;100.00;52643.78;5045201;28;19929;-61
2022/01/01 04:25:20;;;;;;;;;;;;;;;-144.99;100.00;52578.53;5056130;28;19920;-59
2022/01/01 04:27:47;;;;;;;;;;;;;;;-144.99;100.00;52615.25;5054771;28;19927;-59
2022/01/01 04:30:13;;;;;;;;;;;;;;;-144.99;100.00;52619.31;5038069;28;19921;-59
2022/01/01 04:32:40;;;;;;;;;;;;;;;-144.99;100.00;52615.25;5051525;28;20160;-59
2022/01/01 04:35:07;;;;;;;;;;;;;;;-144.99;100.00;52631.53;5052816;28;19927;-59
2022/01/01 04:37:35;;;;;;;;;;;;;;;-144.99;100.00;52643.78;5056954;28;20324;-61
2022/01/01 04:40:02;;;;;;;;;;;;;;;-144.99;100.00;52635.63;5050564;28;19946;-61
2022/01/01 04:42:29;;;;;;;;;;;;;;;-144.99;100.00;52609.13;5050985;28;19920;-61
2022/01/01 04:44:56;;;;;;;;;;;;;;;-144.99;100.00;52651.94;5051435;28;20342;-62
2022/01/01 04:47:22;;;;;;;;;;;;;;;-144.99;100.00;52647.84;5054263;28;19966;-61
2022/01/01 04:49:48;;;;;;;;;;;;;;;-144.99;100.00;52678.44;5050944;28;19921;-60
2022/01/01 04:52:15;;;;;;;;;;;;;;;-144.99;100.00;52651.94;5050937;28;19928;-62
2022/01/01 04:54:44;;;;;;;;;;;;;;;-144.99;100.00;52651.94;5050514;28;19920;-60
2022/01/01 04:57:10;;;;;;;;;;;;;;;-144.99;100.00;52639.69;5047268;28;19927;-58
2022/01/01 04:59:38;;;;;;;;;;;;;;;-144.99;100.00;52633.59;5057260;28;19928;-60
2022/01/01 05:02:04;;;;;;;;;;;;;;;-144.99;100.00;52619.31;5050147;28;19932;-59
2022/01/01 05:04:33;;;;;;;;;;;;;;;-144.99;100.00;52651.94;5049967;28;19921;-59
2022/01/01 05:07:00;;;;;;;;;;;;;;;-144.99;100.00;52647.84;5050462;28;19920;-62
2022/01/01 05:09:27;;;;;;;;;;;;;;;-144.99;100.00;52643.78;5049379;28;19921;-63
2022/01/01 05:11:55;;;;;;;;;;;;;;;-144.99;100.00;52643.78;5051683;28;20304;-61
2022/01/01 05:14:21;;;;;;;;;;;;;;;-144.99;100.00;52680.47;5061426;28;19924;-62
2022/01/01 05:16:48;;;;;;;;;;;;;;;-144.99;100.00;52662.13;5054321;28;19920;-62
2022/01/01 05:19:16;;;;;;;;;;;;;;;-144.99;100.00;52631.53;5050062;28;20357;-60
2022/01/01 05:21:45;;;;;;;;;;;;;;;-144.99;100.00;52627.47;5037137;28;19928;-62
2022/01/01 05:24:15;;;;;;;;;;;;;;;-144.99;100.00;52615.25;5049503;28;19996;-61
2022/01/01 05:26:42;;;;;;;;;;;;;;;-144.99;100.00;52647.84;5058187;28;20057;-59
2022/01/01 05:29:09;;;;;;;;;;;;;;;-144.99;100.00;52676.38;5050494;28;19925;-60
2022/01/01 05:31:36;;;;;;;;;;;;;;;-144.99;100.00;52662.13;5050522;28;19935;-59
2022/01/01 05:34:03;;;;;;;;;;;;;;;-144.99;100.00;52623.38;5049934;28;19921;-59
2022/01/01 05:36:29;;;;;;;;;;;;;;;-144.99;100.00;52664.16;5059065;28;19928;-59
2022/01/01 05:38:56;;;;;;;;;;;;;;;-144.99;100.00;52629.50;5048666;28;19920;-59
2022/01/01 05:41:22;;;;;;;;;;;;;;;-144.99;100.00;52656.00;5050033;28;19921;-59
2022/01/01 05:43:48;;;;;;;;;;;;;;;-144.99;100.00;52635.63;5049750;28;19928;-58
2022/01/01 05:46:16;;;;;;;;;;;;;;;-144.99;100.00;52639.69;5054532;28;20377;-60
2022/01/01 05:48:43;;;;;;;;;;;;;;;-144.99;100.00;52623.38;5050388;28;19925;-58
2022/01/01 05:51:09;;;;;;;;;;;;;;;-144.99;100.00;52660.09;5050741;28;20106;-61
2022/01/01 05:53:36;;;;;;;;;;;;;;;-144.99;100.00;52662.13;5050534;28;19925;-60
2022/01/01 05:56:02;;;;;;;;;;;;;;;-144.99;100.00;52615.25;5045745;28;19921;-59
2022/01/01 05:58:28;;;;;;;;;;;;;;;-144.99;100.00;52623.38;5051451;28;19928;-59
2022/01/01 06:00:55;;;;;;;;;;;;;;;-144.99;100.00;52611.16;5049594;28;19921;-59
2022/01/01 06:03:22;;;;;;;;;;;;;;;-144.99;100.00;52647.84;5049128;28;19970;-59
2022/01/01 06:05:51;;;;;;;;;;;;;;;-144.99;100.00;52619.31;5049591;28;19921;-59
2022/01/01 06:08:18;;;;;;;;;;;;;;;-144.99;100.00;52656.00;5049497;28;20008;-60
2022/01/01 06:10:44;;;;;;;;;;;;;;;-144.99;100.00;52670.28;5049176;28;20007;-59
2022/01/01 06:13:10;;;;;;;;;;;;;;;-144.99;100.00;52637.66;5057350;28;20278;-58
2022/01/01 06:15:37;;;;;;;;;;;;;;;-144.99;100.00;52617.28;5058623;28;19935;-59
2022/01/01 06:18:03;;;;;;;;;;;;;;;-144.99;100.00;52631.53;5049997;28;20175;-59
2022/01/01 06:20:31;;;;;;;;;;;;;;;-144.99;100.00;52656.00;5043310;28;19928;-60
2022/01/01 06:23:01;;;;;;;;;;;;;;;-144.99;100.00;52627.47;5048919;28;19924;-59
2022/01/01 06:25:27;;;;;;;;;;;;;;;-144.99;100.00;52645.81;5053018;28;19966;-60
2022/01/01 06:27:54;;;;;;;;;;;;;;;-144.99;100.00;52643.78;5057861;28;19931;-60
2022/01/01 06:30:20;;;;;;;;;;;;;;;-144.99;100.00;52605.03;5053543;28;19974;-61
2022/01/01 06:32:49;;;;;;;;;;;;;;;-144.99;100.00;52651.94;5053459;28;19920;-60
2022/01/01 06:35:15;;;;;;;;;;;;;;;-144.99;100.00;52668.22;5056412;28;19920;-59
2022/01/01 06:37:43;;;;;;;;;;;;;;;-144.99;100.00;52603.00;5058528;28;19928;-59
2022/01/01 06:40:10;;;;;;;;;;;;;;;-144.99;100.00;52631.53;5052961;28;19920;-59
2022/01/01 06:42:36;;;;;;;;;;;;;;;-144.99;100.00;52649.88;5053743;28;19951;-59
2022/01/01 06:45:03;;;;;;;;;;;;;;;-144.99;100.00;52617.28;5054680;28;19932;-59
2022/01/01 06:47:29;;;;;;;;;;;;;;;-144.99;100.00;52676.38;5056106;28;19920;-59
2022/01/01 06:49:56;;;;;;;;;;;;;;;-144.99;100.00;52619.31;5053727;28;19936;-58
2022/01/01 06:52:22;;;;;;;;;;;;;;;-144.99;100.00;52643.78;5053418;28;20282;-59
2022/01/01 06:54:50;;;;;;;;;;;;;;;-144.99;100.00;52627.47;5052659;28;19927;-58
2022/01/01 06:57:16;;;;;;;;;;;;;;;-144.99;100.00;52629.50;5059135;28;20008;-59
2022/01/01 06:59:43;;;;;;;;;;;;;;;-144.99;100.00;52684.53;5052726;28;19921;-58
2022/01/01 07:02:09;;;;;;;;;;;;;;;-144.99;100.00;52668.22;5052847;28;20370;-58
2022/01/01 07:04:35;;;;;;;;;;;;;;;-144.99;100.00;52615.25;5052830;28;20488;-58
2022/01/01 07:07:01;;;;;;;;;;;;;;;-144.99;100.00;52615.25;5052940;28;19924;-59
2022/01/01 07:09:28;;;;;;;;;;;;;;;-144.99;100.00;52668.22;5053004;28;19924;-58
2022/01/01 07:11:57;;;;;;;;;;;;;;;-144.99;100.00;52684.53;5054071;28;19924;-60
2022/01/01 07:14:23;;;;;;;;;;;;;;;-144.99;100.00;52641.72;5064398;28;20019;-60
2022/01/01 07:16:49;;;;;;;;;;;;;;;-144.99;100.00;52619.31;5056480;28;20274;-60
2022/01/01 07:19:16;;;;;;;;;;;;;;;-144.99;100.00;52656.00;5053050;28;19921;-58
2022/01/01 07:21:42;;;;;;;;;;;;;;;-144.99;100.00;52664.16;5039662;28;19921;-57
2022/01/01 07:24:09;;;;;;;;;;;;;;;-144.99;100.00;52627.47;5055343;28;20450;-56
2022/01/01 07:26:35;;;;;;;;;;;;;;;-144.99;100.00;52639.69;5063963;28;19997;-56
2022/01/01 07:29:03;;;;;;;;;;;;;;;-144.99;100.00;52635.63;5052103;28;19920;-56
2022/01/01 07:31:29;;;;;;;;;;;;;;;-144.99;100.00;52639.69;5052017;28;20439;-57
2022/01/01 07:33:55;;;;;;;;;;;;;;;-144.99;100.00;52639.69;5051424;28;19921;-56
2022/01/01 07:36:22;;;;;;;;;;;;;;;-144.99;100.00;52664.16;5060848;28;20306;-57
2022/01/01 07:38:48;;;;;;;;;;;;;;;-144.99;100.00;52668.22;5051091;28;19921;-59
2022/01/01 07:41:15;;;;;;;;;;;;;;;-144.99;100.00;52639.69;5052326;28;19940;-59
2022/01/01 07:43:41;;;;;;;;;;;;;;;-144.99;100.00;52629.50;5052300;28;19927;-59
2022/01/01 07:46:09;;;;;;;;;;;;;;;-144.99;100.00;52635.63;5057127;28;20175;-59
2022/01/01 07:48:35;;;;;;;;;;;;;;;-144.99;100.00;52641.72;5051912;28;19932;-62
2022/01/01 07:51:01;;;;;;;;;;;;;;;-144.99;100.00;52631.53;5052108;28;20443;-62
2022/01/01 07:53:28;;;;;;;;;;;;;;;-144.99;100.00;52684.53;5051949;28;19924;-61
2022/01/01 07:55:54;;;;;;;;;;;;;;;-144.99;100.00;52609.13;5051841;28;19927;-61
2022/01/01 07:58:20;;;;;;;;;;;;;;;-144.99;100.00;52639.69;5057324;28;19920;-61
2022/01/01 08:00:47;;;;;;;;;;;;;;;-144.99;100.00;52603.00;5052053;28;19921;-60
2022/01/01 08:05:55;;;;;;;;;;;;;;;-144.99;100.00;52603.00;5017656;28;19929;-67
2022/01/01 08:08:21;;;;;;;;;;;;;;;-144.99;100.00;52619.31;5000203;28;19984;-71
2022/01/01 08:10:48;;;;;;;;;;;;;;;-144.99;100.00;52619.31;5001935;28;20401;-70
2022/01/01 08:13:22;;;;;;;;;;;;;;;-144.99;100.00;52623.38;5017283;28;19921;-70
2022/01/01 08:15:48;;;;;;;;;;;;;;;-144.99;100.00;52684.53;5022340;28;19922;-71
2022/01/01 08:18:16;;;;;;;;;;;;;;;-144.99;100.00;52680.47;5012586;28;19922;-70
2022/01/01 08:20:42;;;;;;;;;;;;;;;-144.99;100.00;52656.00;5012737;28;20030;-72
2022/01/01 08:23:09;;;;;;;;;;;;;;;-144.99;100.00;52635.63;5012337;28;19921;-71
2022/01/01 08:25:35;;;;;;;;;;;;;;;-144.99;100.00;52660.09;5025961;28;19929;-71
2022/01/01 08:28:02;;;;;;;;;;;;;;;-144.99;100.00;52656.00;5013601;28;20293;-67
2022/01/01 08:30:29;;;;;;;;;;;;;;;-144.99;100.00;52627.47;5012977;28;19928;-71
2022/01/01 08:33:01;;;;;;;;;;;;;;;-144.99;100.00;52627.47;5012224;28;19929;-71
2022/01/01 08:35:29;;;;;;;;;;;;;;;-144.99;100.00;52660.09;5017825;28;19932;-71
2022/01/01 08:37:56;;;;;;;;;;;;;;;-144.99;100.00;52639.69;5014871;28;19921;-71
2022/01/01 08:40:23;;;;;;;;;;;;;;;-144.99;100.00;52627.47;5011885;28;19987;-71
2022/01/01 08:42:49;;;;;;;;;;;;;;;-144.99;100.00;52676.38;5012080;28;19927;-71
2022/01/01 08:45:15;;;;;;;;;;;;;;;-144.99;100.00;52653.97;5015194;28;19921;-72
2022/01/01 08:47:42;;;;;;;;;;;;;;;-144.99;100.00;52656.00;5025168;28;19932;-70
2022/01/01 08:50:09;;;;;;;;;;;;;;;-144.99;100.00;52639.69;5017705;28;19956;-69
2022/01/01 08:52:37;;;;;;;;;;;;;;;-144.99;100.00;52623.38;5012064;28;19932;-70
2022/01/01 08:55:04;;;;;;;;;;;;;;;-144.99;100.00;52590.78;5010069;28;20208;-68
2022/01/01 08:57:32;;;;;;;;;;;;;;;-144.99;100.00;52639.69;5010932;28;19944;-68
2022/01/01 08:59:58;;;;;;;;;;;;;;;-144.99;100.00;52631.53;5012378;28;20297;-69
2022/01/01 09:02:25;;;;;;;;;;;;;;;-144.99;100.00;52649.88;5011764;28;19922;-69
2022/01/01 09:04:51;;;;;;;;;;;;;;;-144.99;100.00;52631.53;5011631;28;20290;-67
2022/01/01 09:07:17;;;;;;;;;;;;;;;-144.99;100.00;52615.25;5012028;28;20386;-66
2022/01/01 09:09:45;;;;;;;;;;;;;;;-144.99;100.00;52649.88;5011937;28;19921;-68
2022/01/01 09:12:12;;;;;;;;;;;;;;;-144.99;100.00;52582.63;5015110;28;19925;-69
2022/01/01 09:14:39;;;;;;;;;;;;;;;-144.99;100.00;52619.31;5036790;28;19924;-70
2022/01/01 09:17:06;;;;;;;;;;;;;;;-144.99;100.00;52627.47;5031287;28;19921;-69
2022/01/01 09:19:32;;;;;;;;;;;;;;;-144.99;100.00;52635.63;5026495;28;20405;-69
2022/01/01 09:21:58;;;;;;;;;;;;;;;-144.99;100.00;52639.69;5024996;28;19940;-69
2022/01/01 09:24:25;;;;;;;;;;;;;;;-144.99;100.00;52582.63;5024987;28;19925;-66
2022/01/01 09:26:52;;;;;;;;;;;;;;;-144.99;100.00;52617.28;5015763;28;20334;-67
2022/01/01 09:29:19;;;;;;;;;;;;;;;-144.99;100.00;52603.00;5011836;28;19921;-67
2022/01/01 09:31:45;;;;;;;;;;;;;;;-144.99;100.00;52633.59;5010991;28;19933;-67
2022/01/01 09:34:12;;;;;;;;;;;;;;;-144.99;100.00;52627.47;5011219;28;19928;-67
2022/01/01 09:36:38;;;;;;;;;;;;;;;-144.99;100.00;52670.28;5019768;28;19922;-67
2022/01/01 09:39:05;;;;;;;;;;;;;;;-144.99;100.00;52598.94;5011106;28;19925;-67
2022/01/01 09:41:32;;;;;;;;;;;;;;;-144.99;100.00;52607.09;5011753;28;19921;-67
2022/01/01 09:43:59;;;;;;;;;;;;;;;-144.99;100.00;52617.28;5010979;28;19964;-67
2022/01/01 09:46:26;;;;;;;;;;;;;;;-144.99;100.00;52647.84;5009036;28;19926;-67
2022/01/01 09:48:53;;;;;;;;;;;;;;;-144.99;100.00;52611.16;5005216;28;20046;-67
2022/01/01 09:51:20;;;;;;;;;;;;;;;-144.99;100.00;52615.25;5010806;28;20291;-67
2022/01/01 09:53:46;;;;;;;;;;;;;;;-144.99;100.00;52607.09;5010547;28;19925;-67
2022/01/01 09:56:12;;;;;;;;;;;;;;;-144.99;100.00;52615.25;5014828;28;19921;-67
2022/01/01 09:58:39;;;;;;;;;;;;;;;-144.99;100.00;52643.78;5022876;28;19925;-67
2022/01/01 10:01:07;;;;;;;;;;;;;;;-144.99;100.00;52641.72;5011112;28;19925;-67
2022/01/01 10:03:35;;;;;;;;;;;;;;;-144.99;100.00;52651.94;5010871;28;20286;-66
2022/01/01 10:06:04;;;;;;;;;;;;;;;-144.99;100.00;52651.94;5010411;28;20207;-66
2022/01/01 10:08:30;;;;;;;;;;;;;;;-144.99;100.00;52668.22;5017427;28;19940;-68
2022/01/01 10:10:57;;;;;;;;;;;;;;;-144.99;100.00;52660.09;5024668;28;19929;-68
2022/01/01 10:13:29;;;;;;;;;;;;;;;-144.99;100.00;52670.28;5031114;28;20028;-68
2022/01/01 10:15:56;;;;;;;;;;;;;;;-144.99;100.00;52615.25;5032626;28;19925;-68
2022/01/01 10:18:30;;;;;;;;;;;;;;;-144.99;100.00;52651.94;5022348;28;19937;-68
2022/01/01 10:21:00;;;;;;;;;;;;;;;-144.99;100.00;52668.22;5011548;28;19926;-70
2022/01/01 10:23:29;;;;;;;;;;;;;;;-144.99;100.00;52629.50;5006104;28;20020;-70
2022/01/01 10:28:59;;;;;;;;;;;;;;;-144.99;100.00;52621.34;5013616;28;19985;-70
2022/01/01 10:31:25;;;;;;;;;;;;;;;-144.99;100.00;52662.13;5010137;28;19933;-70
2022/01/01 10:33:54;;;;;;;;;;;;;;;-144.99;100.00;52631.53;5010424;28;19926;-70
2022/01/01 10:36:22;;;;;;;;;;;;;;;-144.99;100.00;52668.22;5001146;28;19973;-71
2022/01/01 10:38:49;;;;;;;;;;;;;;;-144.99;100.00;52688.63;5015834;28;20336;-70
2022/01/01 10:41:16;;;;;;;;;;;;;;;-144.99;100.00;52629.50;5019656;28;19933;-70
2022/01/01 10:43:43;;;;;;;;;;;;;;;-144.99;100.00;52623.38;5013561;28;20326;-70
2022/01/01 10:46:11;;;;;;;;;;;;;;;-144.99;100.00;52639.69;5008742;28;19926;-70
2022/01/01 10:48:53;;;;;;;;;;;;;;;-144.99;100.00;52607.09;4999248;28;19933;-70
2022/01/01 10:51:21;;;;;;;;;;;;;;;-144.99;100.00;52672.31;4998222;28;19926;-70
2022/01/01 10:54:00;;;;;;;;;;;;;;;-144.99;100.00;52629.50;5009859;28;19925;-71
2022/01/01 10:56:26;;;;;;;;;;;;;;;-144.99;100.00;52594.84;5004690;28;19932;-70
2022/01/01 10:58:58;;;;;;;;;;;;;;;-144.99;100.00;52611.16;5009924;28;19941;-70
2022/01/01 11:01:25;;;;;;;;;;;;;;;-144.99;100.00;52619.31;5010526;28;19925;-71
2022/01/01 11:03:54;;;;;;;;;;;;;;;-144.99;100.00;52611.16;5015820;28;19968;-69
2022/01/01 11:06:22;;;;;;;;;;;;;;;-144.99;100.00;52619.31;5018508;28;19925;-70
2022/01/01 11:08:50;;;;;;;;;;;;;;;-144.99;100.00;52631.53;5012115;28;19936;-70
2022/01/01 11:11:16;;;;;;;;;;;;;;;-144.99;100.00;52603.00;5013552;28;19925;-70
2022/01/01 11:13:45;;;;;;;;;;;;;;;-144.99;100.00;52639.69;5010934;28;19932;-70
2022/01/01 11:16:13;;;;;;;;;;;;;;;-144.99;100.00;52639.69;5006187;28;19929;-71
2022/01/01 11:18:40;;;;;;;;;;;;;;;-144.99;100.00;52627.47;5013089;28;19965;-70
2022/01/01 11:21:06;;;;;;;;;;;;;;;-144.99;100.00;52609.13;5013393;28;19926;-70
2022/01/01 11:23:34;;;;;;;;;;;;;;;-144.99;100.00;52631.53;5019246;28;20327;-69
2022/01/01 11:26:02;;;;;;;;;;;;;;;-144.99;100.00;52598.94;5014832;28;20024;-70
2022/01/01 11:28:28;;;;;;;;;;;;;;;-144.99;100.00;52627.47;5014075;28;19926;-70
2022/01/01 11:30:58;;;;;;;;;;;;;;;-144.99;100.00;52623.38;5013175;28;19925;-70
2022/01/01 11:33:28;;;;;;;;;;;;;;;-144.99;100.00;52603.00;5013397;28;19925;-70
2022/01/01 11:35:56;;;;;;;;;;;;;;;-144.99;100.00;52617.28;5019943;28;19925;-70
2022/01/01 11:38:23;;;;;;;;;;;;;;;-144.99;100.00;52619.31;5015517;28;19933;-71
2022/01/01 11:40:57;;;;;;;;;;;;;;;-144.99;100.00;52590.78;5025541;28;20008;-70
2022/01/01 11:43:31;;;;;;;;;;;;;;;-144.99;100.00;52629.50;5023731;28;20369;-70
2022/01/01 11:45:58;;;;;;;;;;;;;;;-144.99;100.00;52627.47;5023292;28;19925;-70
2022/01/01 11:48:28;;;;;;;;;;;;;;;-144.99;100.00;52641.72;5001355;28;19937;-70
2022/01/01 11:50:55;;;;;;;;;;;;;;;-144.99;100.00;52623.38;5000555;28;20029;-70
2022/01/01 11:53:28;;;;;;;;;;;;;;;-144.99;100.00;52633.59;5013723;28;19929;-72
2022/01/01 11:56:06;;;;;;;;;;;;;;;-144.99;100.00;52615.25;5011970;28;19952;-71
2022/01/01 11:58:48;;;;;;;;;;;;;;;-144.99;100.00;52572.44;5019463;28;19925;-71
2022/01/01 12:01:16;;;;;;;;;;;;;;;-144.99;100.00;52619.31;5017572;28;19929;-70
2022/01/01 12:03:48;;;;;;;;;;;;;;;-144.99;100.00;52623.38;5015999;28;19933;-70
2022/01/01 12:06:14;;;;;;;;;;;;;;;-144.99;100.00;52586.69;5016243;28;20302;-70
2022/01/01 12:08:41;;;;;;;;;;;;;;;-144.99;100.00;52639.69;5015250;28;19929;-71
2022/01/01 12:11:09;;;;;;;;;;;;;;;-144.99;100.00;52615.25;5015736;28;19932;-71
2022/01/01 12:13:38;;;;;;;;;;;;;;;-144.99;100.00;52611.16;5022443;28;19930;-70
2022/01/01 12:16:20;;;;;;;;;;;;;;;-144.99;100.00;52605.03;5025560;28;19929;-70
2022/01/01 12:18:46;;;;;;;;;;;;;;;-144.99;100.00;52598.94;5015735;28;19925;-70
2022/01/01 12:21:19;;;;;;;;;;;;;;;-144.99;100.00;52637.66;5016713;28;20299;-70
2022/01/01 12:23:48;;;;;;;;;;;;;;;-144.99;100.00;52676.38;5015595;28;19926;-71
2022/01/01 12:26:16;;;;;;;;;;;;;;;-144.99;100.00;52631.53;5027069;28;19933;-70
2022/01/01 12:28:43;;;;;;;;;;;;;;;-144.99;100.00;52633.59;5015560;28;19948;-70